Time;durP1;ratioP1;P1;durP2;ratioP2;P2;SDS_P1;SDS_P2;PMS_P1;PMS_P2;Temp;Humidity;BMP_temperature;BMP_pressure;BME280_temperature;BME280_humidity;BME280_pressure;Samples;Min_cycle;Max_cycle;Signal;HPM_P1;HPM_P2
2023/09/19 00:00:34;;;;;;;8.20;2.47;;;14.00;99.90;;;;;;5059450;28;20036;-82
2023/09/19 00:03:00;;;;;;;12.40;2.40;;;13.90;99.90;;;;;;5075534;28;20024;-82
2023/09/19 00:05:27;;;;;;;7.95;2.10;;;13.90;99.90;;;;;;5059605;28;20514;-82
2023/09/19 00:07:58;;;;;;;8.10;2.30;;;13.90;99.90;;;;;;5089442;28;20071;-82
2023/09/19 00:10:31;;;;;;;7.53;2.13;;;13.80;99.90;;;;;;5057389;28;20118;-82
2023/09/19 00:12:59;;;;;;;9.27;2.00;;;13.80;99.90;;;;;;5073226;28;20066;-82
2023/09/19 00:15:28;;;;;;;9.88;2.30;;;13.70;99.90;;;;;;5072846;28;20032;-82
2023/09/19 00:17:57;;;;;;;6.47;2.28;;;13.70;99.90;;;;;;5074824;28;20032;-82
2023/09/19 00:20:23;;;;;;;7.25;2.10;;;13.60;99.90;;;;;;5057790;28;20553;-82
2023/09/19 00:22:53;;;;;;;6.78;2.08;;;13.60;99.90;;;;;;5060821;28;20493;-82
2023/09/19 00:25:20;;;;;;;7.28;2.13;;;13.60;99.90;;;;;;5071229;28;20771;-82
2023/09/19 00:27:47;;;;;;;8.70;3.65;;;13.50;99.90;;;;;;5070283;28;20052;-82
2023/09/19 00:30:19;;;;;;;9.15;2.45;;;13.50;99.90;;;;;;5073144;28;20089;-82
2023/09/19 00:32:47;;;;;;;5.15;2.10;;;13.40;99.90;;;;;;5073792;28;20045;-81
2023/09/19 00:35:16;;;;;;;10.73;1.92;;;13.40;99.90;;;;;;5070780;28;20044;-82
2023/09/19 00:37:43;;;;;;;6.35;2.08;;;13.30;99.90;;;;;;5057946;28;20039;-82
2023/09/19 00:40:12;;;;;;;6.78;2.30;;;13.30;99.90;;;;;;5061937;28;20105;-82
2023/09/19 00:42:49;;;;;;;6.45;2.08;;;13.30;99.90;;;;;;5077256;28;20036;-81
2023/09/19 00:45:17;;;;;;;9.38;2.55;;;13.20;99.90;;;;;;5073211;28;20055;-82
2023/09/19 00:47:49;;;;;;;6.88;2.13;;;13.20;99.90;;;;;;5090520;28;20039;-81
2023/09/19 00:50:17;;;;;;;14.77;3.17;;;13.20;99.90;;;;;;5095400;28;20095;-82
2023/09/19 00:52:46;;;;;;;8.02;2.47;;;13.20;99.90;;;;;;5078646;28;20036;-82
2023/09/19 00:55:13;;;;;;;9.90;2.70;;;13.10;99.90;;;;;;5076491;28;20071;-81
2023/09/19 00:57:39;;;;;;;6.68;2.03;;;13.20;99.90;;;;;;5098925;28;20070;-82
2023/09/19 01:00:07;;;;;;;7.10;2.42;;;13.20;99.90;;;;;;5083147;28;20088;-82
2023/09/19 01:02:34;;;;;;;8.65;2.10;;;13.10;99.90;;;;;;5079974;28;20079;-82
2023/09/19 01:05:00;;;;;;;8.93;2.50;;;13.10;99.90;;;;;;5094026;28;20158;-82
2023/09/19 01:07:31;;;;;;;10.48;2.42;;;13.20;99.90;;;;;;5081362;28;20484;-82
2023/09/19 01:10:05;;;;;;;6.85;1.95;;;13.10;99.90;;;;;;5079654;28;20039;-82
2023/09/19 01:13:08;;;;;;;7.72;2.15;;;13.10;99.90;;;;;;5079874;28;20039;-82
2023/09/19 01:15:59;;;;;;;11.30;3.03;;;13.10;99.90;;;;;;5094742;28;20048;-82
2023/09/19 01:18:53;;;;;;;6.97;2.20;;;13.00;99.90;;;;;;5081763;28;20036;-82
2023/09/19 01:21:40;;;;;;;8.05;2.45;;;13.00;99.90;;;;;;5087863;28;20442;-82
2023/09/19 01:24:27;;;;;;;11.25;2.47;;;13.00;99.90;;;;;;5075736;28;20500;-82
2023/09/19 01:27:07;;;;;;;11.70;2.50;;;13.00;99.90;;;;;;5078378;28;20042;-82
2023/09/19 01:29:44;;;;;;;8.25;2.30;;;12.90;99.90;;;;;;5094872;28;20051;-82
2023/09/19 01:32:13;;;;;;;7.05;2.17;;;12.90;99.90;;;;;;5081859;28;20338;-82
2023/09/19 01:34:50;;;;;;;6.55;2.00;;;12.80;99.90;;;;;;5079489;28;20627;-82
2023/09/19 01:37:20;;;;;;;10.07;2.40;;;12.70;99.90;;;;;;5078132;28;20051;-82
2023/09/19 01:39:53;;;;;;;11.52;2.50;;;12.70;99.90;;;;;;5081890;28;20200;-82
2023/09/19 01:42:42;;;;;;;10.35;2.45;;;12.70;99.90;;;;;;5092932;28;20427;-82
2023/09/19 01:45:07;;;;;;;8.10;2.80;;;12.70;99.90;;;;;;5080956;28;20052;-82
2023/09/19 01:47:43;;;;;;;7.60;2.22;;;12.60;99.90;;;;;;5068461;28;21466;-82
2023/09/19 01:50:36;;;;;;;6.35;2.25;;;12.60;99.90;;;;;;5054198;28;20405;-82
2023/09/19 01:53:21;;;;;;;9.55;2.30;;;12.50;99.90;;;;;;5059735;28;20094;-82
2023/09/19 01:55:49;;;;;;;10.55;2.63;;;12.40;99.90;;;;;;5070271;28;20068;-82
2023/09/19 01:58:32;;;;;;;7.13;2.17;;;12.50;99.90;;;;;;5056967;28;20322;-82
2023/09/19 02:01:00;;;;;;;7.32;2.67;;;12.50;99.90;;;;;;5056789;28;20032;-82
2023/09/19 02:03:31;;;;;;;8.32;2.67;;;12.40;99.90;;;;;;5073349;28;20198;-82
2023/09/19 02:05:56;;;;;;;8.70;2.17;;;12.40;99.90;;;;;;5075950;28;20032;-82
2023/09/19 02:08:26;;;;;;;9.20;2.42;;;12.40;99.90;;;;;;5067854;28;20037;-82
2023/09/19 02:10:52;;;;;;;8.52;2.30;;;12.40;99.90;;;;;;5069614;28;20063;-82
2023/09/19 02:13:27;;;;;;;10.85;2.60;;;12.30;99.90;;;;;;5054086;28;20068;-82
2023/09/19 02:15:53;;;;;;;8.23;2.28;;;12.30;99.90;;;;;;5067176;28;20086;-82
2023/09/19 02:18:19;;;;;;;10.90;1.98;;;12.30;99.90;;;;;;5070471;28;20028;-82
2023/09/19 02:20:45;;;;;;;4.82;2.15;;;12.30;99.90;;;;;;5069193;28;20052;-82
2023/09/19 02:23:12;;;;;;;5.55;2.17;;;12.30;99.90;;;;;;5071099;28;20044;-82
2023/09/19 02:25:39;;;;;;;8.35;2.22;;;12.30;99.90;;;;;;5057676;28;20097;-82
2023/09/19 02:28:05;;;;;;;12.52;2.60;;;12.30;99.90;;;;;;5056565;28;20059;-82
2023/09/19 02:30:31;;;;;;;8.65;2.10;;;12.30;99.90;;;;;;5054986;28;20568;-82
2023/09/19 02:32:57;;;;;;;7.95;1.95;;;12.30;99.90;;;;;;5057205;28;20109;-82
2023/09/19 02:35:23;;;;;;;9.02;2.33;;;12.30;99.90;;;;;;5054638;28;20330;-82
2023/09/19 02:37:51;;;;;;;9.18;2.20;;;12.30;99.90;;;;;;5057888;28;20115;-82
2023/09/19 02:40:21;;;;;;;5.68;2.10;;;12.30;99.90;;;;;;5055690;28;20135;-82
2023/09/19 02:42:49;;;;;;;7.88;2.10;;;12.30;99.90;;;;;;5068687;28;20040;-82
2023/09/19 02:45:17;;;;;;;6.82;2.53;;;12.30;99.90;;;;;;5072906;28;20064;-82
2023/09/19 02:47:46;;;;;;;9.85;2.65;;;12.20;99.90;;;;;;5087757;28;20407;-82
2023/09/19 02:50:15;;;;;;;9.40;2.28;;;12.20;99.90;;;;;;5071066;28;20044;-82
2023/09/19 02:52:44;;;;;;;12.20;2.50;;;12.20;99.90;;;;;;5079831;28;20058;-82
2023/09/19 02:55:17;;;;;;;7.65;2.50;;;12.20;99.90;;;;;;5076145;28;20472;-82
2023/09/19 02:57:50;;;;;;;8.05;2.67;;;12.20;99.90;;;;;;5090846;28;20115;-82
2023/09/19 03:00:21;;;;;;;14.07;2.95;;;12.20;99.90;;;;;;5070453;28;20071;-82
2023/09/19 03:02:56;;;;;;;11.60;2.50;;;12.30;99.90;;;;;;5076866;28;20086;-82
2023/09/19 03:05:23;;;;;;;12.35;2.40;;;12.40;99.90;;;;;;5091734;28;20402;-82
2023/09/19 03:07:52;;;;;;;8.40;2.90;;;12.50;99.90;;;;;;5078725;28;20036;-82
2023/09/19 03:10:19;;;;;;;9.48;2.47;;;12.60;99.90;;;;;;5076226;28;20206;-81
2023/09/19 03:12:44;;;;;;;10.60;2.58;;;12.60;99.90;;;;;;5079889;28;20062;-82
2023/09/19 03:15:10;;;;;;;6.88;2.30;;;12.60;99.90;;;;;;5078917;28;20464;-82
2023/09/19 03:17:36;;;;;;;8.20;2.45;;;12.60;99.90;;;;;;5077361;28;20036;-82
2023/09/19 03:20:04;;;;;;;9.15;2.40;;;12.60;99.90;;;;;;5091195;28;20130;-82
2023/09/19 03:22:30;;;;;;;19.33;2.92;;;12.50;99.90;;;;;;5078498;28;20746;-82
2023/09/19 03:24:55;;;;;;;6.28;2.30;;;12.50;99.90;;;;;;5078985;28;20054;-82
2023/09/19 03:27:21;;;;;;;6.97;2.50;;;12.50;99.90;;;;;;5082176;28;20044;-83
2023/09/19 03:29:50;;;;;;;10.88;2.70;;;12.40;99.90;;;;;;5077010;28;20075;-82
2023/09/19 03:32:15;;;;;;;6.97;2.42;;;12.40;99.90;;;;;;5080876;28;20096;-82
2023/09/19 03:34:43;;;;;;;11.25;2.80;;;12.40;99.90;;;;;;5098239;28;20350;-82
2023/09/19 03:37:09;;;;;;;6.90;2.20;;;12.40;99.90;;;;;;5084707;28;20123;-81
2023/09/19 03:39:35;;;;;;;12.32;3.10;;;12.40;99.90;;;;;;5091240;28;20039;-82
2023/09/19 03:42:01;;;;;;;13.45;2.80;;;12.40;99.90;;;;;;5077175;28;20050;-82
2023/09/19 03:44:27;;;;;;;10.18;2.58;;;12.40;99.90;;;;;;5094780;28;20066;-82
2023/09/19 03:46:52;;;;;;;6.10;2.30;;;12.40;99.90;;;;;;5093570;28;20074;-82
2023/09/19 03:49:19;;;;;;;10.77;2.58;;;12.40;99.90;;;;;;5089385;28;20789;-82
2023/09/19 03:51:44;;;;;;;6.97;2.50;;;12.40;99.90;;;;;;5094598;28;20051;-82
2023/09/19 03:54:10;;;;;;;6.50;2.15;;;12.40;99.90;;;;;;5092721;28;20043;-82
2023/09/19 03:56:35;;;;;;;10.07;2.40;;;12.40;99.90;;;;;;5084147;28;20040;-82
2023/09/19 03:59:01;;;;;;;8.20;2.03;;;12.50;99.90;;;;;;5080634;28;20357;-82
2023/09/19 04:01:27;;;;;;;10.52;2.70;;;12.60;99.90;;;;;;5077369;28;20411;-82
2023/09/19 04:03:53;;;;;;;9.45;2.60;;;12.60;99.90;;;;;;5079535;28;20047;-82
2023/09/19 04:06:19;;;;;;;8.98;2.40;;;12.70;99.90;;;;;;5087332;28;20040;-82
2023/09/19 04:08:46;;;;;;;5.60;2.13;;;12.70;99.90;;;;;;5094110;28;20055;-82
2023/09/19 04:11:11;;;;;;;6.43;2.22;;;12.70;99.90;;;;;;5075124;28;20040;-82
2023/09/19 04:13:37;;;;;;;6.03;2.05;;;12.80;99.90;;;;;;5093171;28;20099;-82
2023/09/19 04:16:12;;;;;;;7.68;2.05;;;12.80;99.90;;;;;;5080428;28;20040;-82
2023/09/19 04:18:41;;;;;;;7.53;2.03;;;12.80;99.90;;;;;;5081575;28;20054;-82
2023/09/19 04:21:06;;;;;;;10.13;2.45;;;12.90;99.90;;;;;;5076317;28;20400;-82
2023/09/19 04:23:33;;;;;;;13.73;2.63;;;12.90;99.90;;;;;;5077708;28;20039;-82
2023/09/19 04:25:58;;;;;;;5.80;2.25;;;13.00;99.90;;;;;;5078703;28;20066;-82
2023/09/19 04:28:24;;;;;;;7.40;2.20;;;13.00;99.90;;;;;;5093064;28;20063;-82
2023/09/19 04:30:50;;;;;;;4.95;1.98;;;13.10;99.90;;;;;;5081263;28;20035;-82
2023/09/19 04:33:17;;;;;;;6.55;2.25;;;13.10;99.90;;;;;;5080983;28;20069;-82
2023/09/19 04:35:42;;;;;;;6.80;2.50;;;13.00;99.90;;;;;;5081655;28;20283;-82
2023/09/19 04:38:09;;;;;;;9.98;2.20;;;13.00;99.90;;;;;;5081577;28;20034;-82
2023/09/19 04:40:35;;;;;;;6.50;2.10;;;13.00;99.90;;;;;;5092149;28;20118;-82
2023/09/19 04:43:00;;;;;;;8.10;2.40;;;13.00;99.90;;;;;;5091183;28;20464;-82
2023/09/19 04:45:27;;;;;;;8.70;2.10;;;13.00;99.90;;;;;;5079950;28;20074;-82
2023/09/19 04:47:54;;;;;;;5.75;2.08;;;13.00;99.90;;;;;;5072027;28;20109;-82
2023/09/19 04:50:21;;;;;;;7.63;2.10;;;13.10;99.90;;;;;;5054258;28;20041;-82
2023/09/19 04:52:50;;;;;;;9.75;2.30;;;13.10;99.90;;;;;;5060505;28;20078;-81
2023/09/19 04:55:18;;;;;;;8.75;2.33;;;13.20;99.90;;;;;;5057510;28;20052;-82
2023/09/19 04:57:48;;;;;;;6.18;2.33;;;13.20;99.90;;;;;;5063972;28;20089;-82
2023/09/19 05:00:17;;;;;;;6.13;1.80;;;13.20;99.90;;;;;;5075949;28;20096;-82
2023/09/19 05:02:43;;;;;;;11.68;2.60;;;13.20;99.90;;;;;;5078040;28;20143;-82
2023/09/19 05:05:31;;;;;;;8.45;2.25;;;13.20;99.90;;;;;;5057057;28;20138;-82
2023/09/19 05:07:55;;;;;;;4.72;2.08;;;13.20;99.90;;;;;;5071690;28;20375;-82
2023/09/19 05:10:21;;;;;;;8.10;2.08;;;13.20;99.90;;;;;;5058997;28;20081;-82
2023/09/19 05:12:48;;;;;;;7.20;2.75;;;13.20;99.90;;;;;;5058919;28;20506;-82
2023/09/19 05:15:17;;;;;;;5.32;1.85;;;13.10;99.90;;;;;;5059882;28;20107;-82
2023/09/19 05:17:50;;;;;;;5.38;2.00;;;13.10;99.90;;;;;;5071231;28;20066;-82
2023/09/19 05:20:24;;;;;;;8.98;2.40;;;13.10;99.90;;;;;;5068163;28;20051;-82
2023/09/19 05:23:03;;;;;;;6.20;2.30;;;13.10;99.90;;;;;;5068801;28;20047;-82
2023/09/19 05:25:30;;;;;;;8.00;2.17;;;13.10;99.90;;;;;;5071836;28;20040;-82
2023/09/19 05:27:58;;;;;;;10.95;2.85;;;13.10;99.90;;;;;;5068806;28;20068;-82
2023/09/19 05:30:27;;;;;;;4.93;2.40;;;13.10;99.90;;;;;;5055612;28;20201;-82
2023/09/19 05:32:54;;;;;;;7.28;2.20;;;13.10;99.90;;;;;;5071605;28;20032;-82
2023/09/19 05:35:21;;;;;;;12.18;2.30;;;13.10;99.90;;;;;;5058066;28;20107;-82
2023/09/19 05:37:50;;;;;;;9.43;2.40;;;13.10;99.90;;;;;;5055430;28;20040;-82
2023/09/19 05:40:19;;;;;;;5.03;2.15;;;13.20;99.90;;;;;;5071138;28;20489;-82
2023/09/19 05:42:45;;;;;;;7.28;2.03;;;13.20;99.90;;;;;;5057065;28;20048;-82
2023/09/19 05:45:13;;;;;;;6.90;2.33;;;13.20;99.90;;;;;;5058603;28;20662;-82
2023/09/19 05:47:43;;;;;;;7.57;2.10;;;13.20;99.90;;;;;;5073387;28;20662;-82
2023/09/19 05:50:09;;;;;;;8.50;1.90;;;13.20;99.90;;;;;;5071352;28;20047;-82
2023/09/19 05:52:39;;;;;;;5.78;2.03;;;13.20;99.90;;;;;;5072617;28;20131;-82
2023/09/19 05:55:06;;;;;;;9.40;2.63;;;13.30;99.90;;;;;;5070392;28;20044;-82
2023/09/19 05:57:33;;;;;;;8.80;2.20;;;13.30;99.90;;;;;;5057314;28;20041;-82
2023/09/19 05:59:58;;;;;;;7.68;2.10;;;13.40;99.90;;;;;;5052825;28;20040;-82
2023/09/19 06:02:28;;;;;;;10.52;2.15;;;13.40;99.90;;;;;;5053503;28;20044;-82
2023/09/19 06:04:55;;;;;;;9.00;2.53;;;13.40;99.90;;;;;;5051994;28;20048;-82
2023/09/19 06:07:27;;;;;;;12.27;2.50;;;13.40;99.90;;;;;;5052604;28;20441;-82
2023/09/19 06:09:53;;;;;;;8.85;2.13;;;13.50;99.90;;;;;;5057022;28;20037;-82
2023/09/19 06:12:19;;;;;;;9.05;2.40;;;13.50;99.90;;;;;;5057443;28;20771;-82
2023/09/19 06:14:45;;;;;;;6.90;2.08;;;13.50;99.90;;;;;;5069275;28;20478;-82
2023/09/19 06:17:10;;;;;;;8.55;2.50;;;13.60;99.90;;;;;;5053466;28;20068;-82
2023/09/19 06:19:36;;;;;;;7.20;2.00;;;13.60;99.90;;;;;;5049477;28;20075;-82
2023/09/19 06:22:03;;;;;;;6.07;2.15;;;13.70;99.90;;;;;;5063080;28;20052;-82
2023/09/19 06:24:29;;;;;;;8.93;2.10;;;13.70;99.90;;;;;;5058602;28;20043;-82
2023/09/19 06:26:55;;;;;;;10.73;2.60;;;13.80;99.90;;;;;;5067670;28;20042;-82
2023/09/19 06:29:23;;;;;;;6.60;2.00;;;13.80;99.90;;;;;;5053441;28;20036;-82
2023/09/19 06:31:48;;;;;;;7.70;2.00;;;13.80;99.90;;;;;;5055829;28;20043;-82
2023/09/19 06:34:15;;;;;;;12.82;2.90;;;13.90;99.90;;;;;;5051845;28;20040;-83
2023/09/19 06:36:41;;;;;;;10.95;2.40;;;14.00;99.90;;;;;;5056963;28;20028;-83
2023/09/19 06:39:10;;;;;;;13.18;2.33;;;13.90;99.90;;;;;;5058192;28;20491;-82
2023/09/19 06:41:39;;;;;;;6.65;2.17;;;14.00;99.90;;;;;;5071320;28;20749;-83
2023/09/19 06:44:05;;;;;;;14.85;2.70;;;14.00;99.90;;;;;;5065289;28;20235;-83
2023/09/19 06:46:34;;;;;;;7.63;2.28;;;14.00;99.90;;;;;;5077091;28;20098;-83
2023/09/19 06:49:03;;;;;;;9.05;2.10;;;14.10;99.90;;;;;;5078032;28;20046;-83
2023/09/19 06:51:29;;;;;;;6.43;2.25;;;14.10;99.90;;;;;;5079448;28;20044;-82
2023/09/19 06:53:56;;;;;;;11.98;3.47;;;14.20;99.90;;;;;;5078241;28;20032;-82
2023/09/19 06:56:24;;;;;;;8.75;2.40;;;14.30;99.90;;;;;;5079695;28;20373;-83
2023/09/19 06:58:50;;;;;;;10.15;2.38;;;14.40;99.90;;;;;;5076667;28;20032;-83
2023/09/19 07:01:15;;;;;;;9.68;2.75;;;14.50;99.90;;;;;;5077737;28;20183;-82
2023/09/19 07:03:41;;;;;;;10.10;2.63;;;14.60;99.90;;;;;;5078758;28;20043;-83
2023/09/19 07:06:08;;;;;;;11.45;2.30;;;14.60;99.90;;;;;;5074156;28;20093;-83
2023/09/19 07:08:33;;;;;;;11.55;2.53;;;14.60;99.90;;;;;;5077586;28;20456;-82
2023/09/19 07:10:59;;;;;;;6.82;2.10;;;14.60;99.90;;;;;;5060676;28;20072;-83
2023/09/19 07:13:25;;;;;;;7.97;2.55;;;14.60;99.90;;;;;;5076337;28;20067;-83
2023/09/19 07:15:51;;;;;;;10.25;2.20;;;14.70;99.90;;;;;;5074099;28;20076;-83
2023/09/19 07:18:17;;;;;;;9.13;2.50;;;14.80;99.90;;;;;;5087995;28;20024;-82
2023/09/19 07:20:49;;;;;;;6.55;2.30;;;14.80;99.90;;;;;;5076244;28;20565;-83
2023/09/19 07:23:22;;;;;;;10.10;2.50;;;14.90;99.90;;;;;;5076958;28;20405;-82
2023/09/19 07:25:49;;;;;;;12.10;2.80;;;15.10;99.90;;;;;;5107019;28;21300;-83
2023/09/19 07:28:16;;;;;;;8.50;2.10;;;15.00;99.90;;;;;;5078133;28;20039;-83
2023/09/19 07:30:42;;;;;;;6.55;2.38;;;15.10;99.90;;;;;;5077522;28;20319;-83
2023/09/19 07:33:11;;;;;;;7.50;1.67;;;15.10;99.90;;;;;;5068208;28;20040;-83
2023/09/19 07:35:39;;;;;;;8.05;2.30;;;15.10;99.90;;;;;;5078095;28;20173;-82
2023/09/19 07:38:05;;;;;;;6.35;1.90;;;15.00;99.90;;;;;;5088393;28;20127;-83
2023/09/19 07:40:31;;;;;;;8.90;2.42;;;14.90;99.90;;;;;;5080319;28;20124;-83
2023/09/19 07:42:56;;;;;;;9.07;1.98;;;14.90;99.90;;;;;;5071830;28;20424;-82
2023/09/19 07:45:22;;;;;;;9.05;2.10;;;15.00;99.90;;;;;;5064626;28;20059;-83
2023/09/19 07:47:49;;;;;;;6.88;2.40;;;15.10;99.90;;;;;;5071161;28;20614;-83
2023/09/19 07:50:18;;;;;;;7.72;2.30;;;15.20;99.90;;;;;;5048815;28;20520;-83
2023/09/19 07:52:45;;;;;;;6.75;2.00;;;15.40;99.90;;;;;;5086212;28;20123;-83
2023/09/19 07:55:15;;;;;;;5.93;1.90;;;15.40;99.90;;;;;;5051218;28;20112;-83
2023/09/19 07:57:42;;;;;;;6.97;2.08;;;15.40;99.90;;;;;;5057992;28;20103;-83
2023/09/19 08:00:09;;;;;;;5.32;2.00;;;15.50;99.90;;;;;;5053961;28;20446;-83
2023/09/19 08:02:39;;;;;;;6.90;2.00;;;15.50;99.90;;;;;;5055008;28;20082;-83
2023/09/19 08:05:06;;;;;;;7.80;1.80;;;15.50;99.90;;;;;;5074728;28;20048;-83
2023/09/19 08:07:38;;;;;;;5.07;2.20;;;15.80;99.90;;;;;;5071023;28;20089;-83
2023/09/19 08:10:12;;;;;;;9.50;2.45;;;15.70;99.90;;;;;;5054102;28;20044;-83
2023/09/19 08:12:48;;;;;;;11.33;2.50;;;15.80;99.90;;;;;;5065169;28;20038;-83
2023/09/19 08:15:15;;;;;;;6.65;1.92;;;15.60;99.90;;;;;;5072051;28;20367;-83
2023/09/19 08:17:41;;;;;;;5.80;1.95;;;15.60;99.90;;;;;;5069566;28;20029;-83
2023/09/19 08:20:15;;;;;;;7.13;2.30;;;15.70;99.90;;;;;;5067733;28;20059;-83
2023/09/19 08:22:49;;;;;;;9.55;2.00;;;15.70;99.90;;;;;;5073990;28;20044;-83
2023/09/19 08:25:19;;;;;;;9.25;1.83;;;15.80;99.90;;;;;;5059188;28;20046;-83
2023/09/19 08:27:48;;;;;;;4.90;2.00;;;16.10;99.90;;;;;;5071358;28;20040;-83
2023/09/19 08:30:15;;;;;;;7.35;1.83;;;16.20;99.90;;;;;;5070534;28;20044;-83
2023/09/19 08:32:42;;;;;;;9.82;2.70;;;16.10;99.90;;;;;;5057556;28;20032;-83
2023/09/19 08:35:09;;;;;;;6.72;2.10;;;16.10;99.90;;;;;;5060676;28;20075;-83
2023/09/19 08:37:35;;;;;;;9.23;2.25;;;16.20;99.90;;;;;;5067905;28;20487;-83
2023/09/19 08:40:01;;;;;;;9.50;2.25;;;16.30;99.90;;;;;;5050409;28;20056;-84
2023/09/19 08:42:27;;;;;;;8.80;1.95;;;16.50;99.90;;;;;;5059429;28;20122;-83
2023/09/19 08:44:55;;;;;;;9.30;2.35;;;16.50;99.90;;;;;;5067979;28;20054;-83
2023/09/19 08:47:38;;;;;;;9.95;2.40;;;16.60;99.90;;;;;;5058723;28;20040;-83
2023/09/19 08:50:28;;;;;;;6.72;2.58;;;16.50;99.90;;;;;;5054493;28;20095;-83
2023/09/19 08:52:55;;;;;;;8.73;2.80;;;16.40;99.90;;;;;;5059678;28;20201;-83
2023/09/19 08:55:27;;;;;;;5.95;2.47;;;16.80;99.90;;;;;;5067824;28;20119;-83
2023/09/19 08:57:59;;;;;;;10.70;2.60;;;17.00;99.90;;;;;;5073169;28;20392;-83
2023/09/19 09:00:27;;;;;;;8.27;2.53;;;16.90;99.90;;;;;;5071939;28;20119;-83
2023/09/19 09:02:55;;;;;;;10.50;3.00;;;17.00;99.90;;;;;;5060129;28;20117;-83
2023/09/19 09:05:23;;;;;;;9.77;3.28;;;17.00;99.90;;;;;;5074234;28;20529;-83
2023/09/19 09:07:51;;;;;;;14.10;3.38;;;17.00;99.90;;;;;;5072554;28;20100;-83
2023/09/19 09:10:22;;;;;;;6.10;2.78;;;17.00;99.90;;;;;;5070811;28;20074;-83
2023/09/19 09:12:51;;;;;;;7.88;2.72;;;17.10;99.90;;;;;;5061459;28;20043;-83
2023/09/19 09:15:21;;;;;;;10.02;3.20;;;17.10;99.90;;;;;;5056632;28;20223;-83
2023/09/19 09:17:52;;;;;;;11.43;3.22;;;17.00;99.90;;;;;;5051895;28;20496;-83
2023/09/19 09:20:19;;;;;;;11.98;3.17;;;17.20;99.90;;;;;;5057508;28;20157;-83
2023/09/19 09:23:03;;;;;;;10.57;3.47;;;17.60;99.90;;;;;;5054442;28;20055;-83
2023/09/19 09:26:09;;;;;;;11.32;3.03;;;17.80;99.90;;;;;;5071235;28;20039;-84
2023/09/19 09:28:37;;;;;;;7.68;3.00;;;17.60;99.90;;;;;;5001612;28;20037;-83
2023/09/19 09:31:07;;;;;;;11.48;3.08;;;17.70;99.90;;;;;;5002580;28;20049;-83
2023/09/19 09:33:33;;;;;;;6.43;2.85;;;17.70;99.90;;;;;;5029039;28;20047;-84
2023/09/19 09:36:02;;;;;;;7.03;2.63;;;17.80;99.90;;;;;;5054585;28;20521;-83
2023/09/19 09:38:31;;;;;;;9.23;2.75;;;18.10;99.90;;;;;;5058755;28;20047;-83
2023/09/19 09:41:06;;;;;;;15.20;2.85;;;18.00;99.90;;;;;;5056843;28;20043;-83
2023/09/19 09:43:46;;;;;;;8.52;2.28;;;18.20;99.90;;;;;;5061682;28;20931;-84
2023/09/19 09:49:18;;;;;;;10.30;2.50;;;18.60;99.90;;;;;;5091845;28;20836;-83
2023/09/19 09:52:16;;;;;;;9.27;3.08;;;18.80;99.90;;;;;;5080218;28;20329;-84
2023/09/19 09:55:05;;;;;;;9.80;2.30;;;19.10;99.90;;;;;;5072620;28;20044;-83
2023/09/19 09:57:31;;;;;;;10.90;2.65;;;18.80;99.90;;;;;;5077301;28;20527;-83
2023/09/19 09:59:59;;;;;;;10.70;2.72;;;18.50;99.90;;;;;;5089205;28;20067;-83
2023/09/19 10:02:32;;;;;;;15.35;2.70;;;18.30;99.90;;;;;;5089319;28;21078;-83
2023/09/19 10:05:06;;;;;;;11.50;2.22;;;18.50;99.90;;;;;;5084599;28;20040;-83
2023/09/19 10:07:35;;;;;;;9.40;2.25;;;18.50;99.90;;;;;;5081629;28;20389;-83
2023/09/19 10:10:28;;;;;;;10.45;2.47;;;18.20;99.90;;;;;;5074224;28;20048;-83
2023/09/19 10:12:56;;;;;;;10.98;2.60;;;18.40;99.90;;;;;;5092490;28;20115;-83
2023/09/19 10:15:26;;;;;;;6.57;2.17;;;18.50;99.90;;;;;;5092387;27;20039;-83
2023/09/19 10:17:56;;;;;;;10.07;2.50;;;18.40;99.90;;;;;;5087741;28;20777;-84
2023/09/19 10:20:32;;;;;;;7.25;2.30;;;18.70;99.90;;;;;;5073208;28;20043;-83
2023/09/19 10:23:00;;;;;;;7.32;2.28;;;19.00;99.90;;;;;;5078078;28;20154;-83
2023/09/19 10:25:30;;;;;;;8.73;2.40;;;18.70;99.90;;;;;;5091262;28;20039;-83
2023/09/19 10:27:59;;;;;;;8.73;2.28;;;19.00;99.90;;;;;;5078530;28;20341;-83
2023/09/19 10:30:28;;;;;;;12.82;2.60;;;19.30;99.90;;;;;;5075358;28;20044;-83
2023/09/19 10:33:05;;;;;;;8.70;2.38;;;19.30;99.90;;;;;;5089367;28;20059;-84
2023/09/19 10:35:32;;;;;;;11.15;2.58;;;19.30;99.90;;;;;;5086023;28;20177;-83
2023/09/19 10:38:02;;;;;;;8.38;2.35;;;19.60;99.90;;;;;;5078617;27;20050;-82
2023/09/19 10:40:45;;;;;;;14.88;2.75;;;19.40;99.90;;;;;;5071973;28;20044;-83
2023/09/19 10:43:23;;;;;;;9.63;2.58;;;19.40;99.90;;;;;;5076188;28;20156;-83
2023/09/19 10:45:52;;;;;;;8.52;2.60;;;19.50;99.90;;;;;;5089090;28;20063;-83
2023/09/19 10:48:19;;;;;;;8.98;2.03;;;19.90;99.90;;;;;;5081137;28;20051;-83
2023/09/19 10:51:00;;;;;;;8.40;3.28;;;19.70;99.90;;;;;;5087359;28;20032;-83
2023/09/19 10:53:28;;;;;;;8.73;2.50;;;19.50;99.90;;;;;;5090304;28;20542;-83
2023/09/19 10:55:59;;;;;;;13.43;3.28;;;19.30;99.90;;;;;;5074237;28;20124;-84
2023/09/19 10:58:34;;;;;;;11.90;2.83;;;19.50;99.90;;;;;;5071543;28;20046;-83
2023/09/19 11:01:07;;;;;;;7.00;3.08;;;19.80;99.90;;;;;;5069786;28;20421;-84
2023/09/19 11:03:33;;;;;;;8.48;2.22;;;19.70;99.90;;;;;;5077332;28;20075;-83
2023/09/19 11:06:20;;;;;;;7.45;2.47;;;19.80;99.90;;;;;;5073719;28;20249;-83
2023/09/19 11:08:57;;;;;;;10.48;2.45;;;19.80;99.90;;;;;;5069471;28;20048;-83
2023/09/19 11:11:39;;;;;;;8.93;2.45;;;19.70;99.90;;;;;;5096650;28;20115;-84
2023/09/19 11:14:14;;;;;;;11.65;2.72;;;19.70;99.90;;;;;;5076572;28;20121;-83
2023/09/19 11:16:40;;;;;;;7.18;2.60;;;19.80;99.90;;;;;;5085999;28;20498;-83
2023/09/19 11:19:07;;;;;;;11.57;2.90;;;19.50;99.90;;;;;;5074716;28;20129;-83
2023/09/19 11:21:51;;;;;;;7.90;2.50;;;19.30;99.90;;;;;;5087313;28;20044;-84
2023/09/19 11:24:22;;;;;;;12.90;2.80;;;19.00;99.90;;;;;;5076101;28;20039;-84
2023/09/19 11:26:48;;;;;;;10.23;2.85;;;18.80;99.90;;;;;;5074235;28;20101;-84
2023/09/19 11:29:31;;;;;;;6.13;2.15;;;19.10;99.90;;;;;;5092907;28;20036;-83
2023/09/19 11:31:59;;;;;;;6.97;2.45;;;19.20;99.90;;;;;;5093032;28;20076;-84
2023/09/19 11:34:41;;;;;;;9.98;2.83;;;19.40;99.90;;;;;;5073414;28;20039;-84
2023/09/19 11:37:11;;;;;;;9.50;2.55;;;19.20;99.90;;;;;;5089152;28;20107;-83
2023/09/19 11:39:41;;;;;;;9.20;2.70;;;19.10;99.90;;;;;;5090064;28;20039;-84
2023/09/19 11:42:44;;;;;;;8.88;2.28;;;19.00;99.90;;;;;;5091989;28;20083;-84
2023/09/19 11:45:39;;;;;;;13.38;2.88;;;18.90;99.90;;;;;;5059555;28;20131;-83
2023/09/19 11:48:06;;;;;;;6.10;2.50;;;19.20;99.90;;;;;;5053801;28;20455;-84
2023/09/19 11:50:34;;;;;;;10.23;2.50;;;19.60;99.90;;;;;;5058362;28;20040;-83
2023/09/19 11:53:01;;;;;;;10.48;2.67;;;19.80;99.90;;;;;;5064956;28;20036;-84
2023/09/19 11:55:32;;;;;;;9.13;2.40;;;19.70;99.90;;;;;;5063085;28;20039;-84
2023/09/19 11:58:22;;;;;;;7.88;2.22;;;19.70;99.90;;;;;;5077007;28;20345;-84
2023/09/19 12:00:58;;;;;;;8.00;2.30;;;19.60;99.90;;;;;;5054672;28;20464;-84
2023/09/19 12:03:32;;;;;;;7.78;2.45;;;19.50;99.90;;;;;;5057788;28;20040;-84
2023/09/19 12:05:59;;;;;;;8.38;2.63;;;19.50;99.90;;;;;;5071743;28;20052;-84
2023/09/19 12:08:27;;;;;;;6.15;2.40;;;19.50;99.90;;;;;;5061457;28;20078;-83
2023/09/19 12:10:54;;;;;;;8.77;2.13;;;19.60;99.90;;;;;;5053167;28;20458;-83
2023/09/19 12:13:20;;;;;;;9.60;2.40;;;19.70;99.90;;;;;;5060044;28;20036;-83
2023/09/19 12:15:49;;;;;;;9.25;2.40;;;19.70;99.90;;;;;;5072097;28;20040;-84
2023/09/19 12:18:30;;;;;;;9.10;2.40;;;19.50;99.90;;;;;;5073354;28;20036;-84
2023/09/19 12:20:58;;;;;;;11.93;2.70;;;19.40;99.90;;;;;;5071153;28;20040;-83
2023/09/19 12:23:25;;;;;;;9.20;1.88;;;19.20;99.90;;;;;;5058876;28;20035;-84
2023/09/19 12:25:53;;;;;;;8.30;2.17;;;18.90;99.90;;;;;;5059250;28;20735;-84
2023/09/19 12:28:23;;;;;;;4.20;1.67;;;18.90;99.90;;;;;;5065089;28;20048;-84
2023/09/19 12:30:49;;;;;;;6.55;2.20;;;18.90;99.90;;;;;;5073272;28;20039;-84
2023/09/19 12:33:19;;;;;;;6.57;2.00;;;18.80;99.90;;;;;;5072987;28;20282;-84
2023/09/19 12:35:45;;;;;;;9.85;2.53;;;18.80;99.90;;;;;;5055971;28;20719;-84
2023/09/19 12:38:24;;;;;;;10.02;2.55;;;19.10;99.90;;;;;;5071558;28;20040;-84
2023/09/19 12:40:51;;;;;;;7.15;1.98;;;19.60;99.90;;;;;;5060913;28;20070;-84
2023/09/19 12:43:18;;;;;;;9.43;2.30;;;19.70;99.90;;;;;;5075199;28;20157;-84
2023/09/19 12:45:44;;;;;;;8.30;2.10;;;19.60;99.90;;;;;;5081496;28;20066;-84
2023/09/19 12:48:29;;;;;;;6.25;2.00;;;19.50;99.90;;;;;;5079811;28;20039;-85
2023/09/19 12:51:16;;;;;;;8.70;2.10;;;19.40;99.90;;;;;;5085947;28;20422;-84
2023/09/19 12:53:46;;;;;;;10.27;1.90;;;19.50;99.90;;;;;;5083016;28;20126;-84
2023/09/19 12:56:18;;;;;;;9.02;2.00;;;19.60;99.90;;;;;;5078790;28;20039;-84
2023/09/19 12:58:56;;;;;;;8.18;1.85;;;19.60;99.90;;;;;;5096585;28;20062;-84
2023/09/19 13:01:27;;;;;;;8.18;2.10;;;19.10;99.90;;;;;;5086292;28;20502;-84